Hlavní strana
METAR-TAF:

METAR-TAF

Letiště :

Ivalo, Finsko

zeměpisná šířka: 68-37N, zeměpisná délka: 027-25E, výška: 147 m

Aktuální stav počasí

Zpráva byla vytvořena před 13 minutami, v 00:20 UTC
Severozápadní vítr 9 kt
Teplota -1°C
Vlhkost vzduchu 64%
Tlak 1004 hPa
Viditelnost 10 km a více
Zataženo ve výšce 4900 ft

METAR: EFIV 220020Z AUTO 32009KT 9999 OVC049 M01/M07 Q1004

Čas: 02:33 (00:33 UTC)

Předpověď počasí

Zpráva byla vytvořena před 6 hodinami a 56 minutami, v 17:37 UTC
Předpověď platná od 21 v 18 UTC do 21 v 21 UTC
Západojihozápadní vítr 4 kt
Viditelnost 10 km a více
Oblačno až skoro zataženo ve výšce 1000 ft
Dočasný
od 21 v 18 UTC do 21 v 21 UTC
Viditelnost: 4000 m
Zataženo ve výšce 800 ft
slabé sněžení

TAF: EFIV 211737Z 2118/2121 25004KT 9999 BKN010 TEMPO 2118/2121 4000 -SN OVC008

Stav a předpovědi počasí z více než 4 000 letišť (zprávy METAR a TAF).

Červené a žluté tečky na mapě představují dostupné meteorologické stanice.

Když kurzor umístíte na tečku, zobrazí se název stanice.

Pak kliknutím zobrazíte stav a předpověď počasí.

Chcete-li změnit mapu, kliknutím na zelené tlačítko se znaménkem +mapu přiblížíte, kliknutím na zelené tlačítko se znaménkem – mapu oddálíte a kliknutím na zelené šipky přejdete na sousední mapy.


METAR-TAF: